createdAt,value
2023-04-28T00:01:41.953Z,13.20
2023-04-28T00:04:09.316Z,13.23
2023-04-28T00:06:37.284Z,13.28
2023-04-28T00:09:04.043Z,13.26
2023-04-28T00:11:30.802Z,13.32
2023-04-28T00:13:57.659Z,13.34
2023-04-28T00:16:24.567Z,13.36
2023-04-28T00:18:51.544Z,13.41
2023-04-28T00:21:18.232Z,13.43
2023-04-28T00:23:45.011Z,13.42
2023-04-28T00:26:12.589Z,13.44
2023-04-28T00:28:41.539Z,13.47
2023-04-28T00:31:16.332Z,13.53
2023-04-28T00:33:43.984Z,13.53
2023-04-28T00:36:11.268Z,13.55
2023-04-28T00:38:38.132Z,13.53
2023-04-28T00:41:05.019Z,13.52
2023-04-28T00:43:31.772Z,13.49
2023-04-28T00:45:58.547Z,13.53
2023-04-28T00:48:25.622Z,13.51
2023-04-28T00:50:52.406Z,13.49
2023-04-28T00:53:19.174Z,13.46
2023-04-28T00:55:46.663Z,13.43
2023-04-28T00:58:13.348Z,13.37
2023-04-28T01:00:40.777Z,13.34
2023-04-28T01:03:08.232Z,13.30
2023-04-28T01:05:35.187Z,13.28
2023-04-28T01:08:02.020Z,13.32
2023-04-28T01:10:28.813Z,13.34
2023-04-28T01:12:57.576Z,13.34
2023-04-28T01:15:24.548Z,13.34
2023-04-28T01:17:53.942Z,13.30
2023-04-28T01:20:20.859Z,13.24
2023-04-28T01:22:47.656Z,13.27
2023-04-28T01:25:14.942Z,13.12
2023-04-28T01:27:41.613Z,13.11
2023-04-28T01:30:11.710Z,13.02
2023-04-28T01:32:39.050Z,12.98
2023-04-28T01:35:06.015Z,12.93
2023-04-28T01:37:34.956Z,12.90
2023-04-28T01:40:01.681Z,12.95
2023-04-28T01:42:28.411Z,12.95
2023-04-28T01:44:55.132Z,13.09
2023-04-28T01:47:21.890Z,13.22
2023-04-28T01:49:50.217Z,13.28
2023-04-28T01:52:16.960Z,13.27
2023-04-28T01:54:43.839Z,13.29
2023-04-28T01:57:10.578Z,13.29
2023-04-28T01:59:37.564Z,13.26
2023-04-28T02:02:06.064Z,13.25
2023-04-28T02:04:33.685Z,13.22
2023-04-28T02:07:00.411Z,13.15
2023-04-28T02:09:27.144Z,13.13
2023-04-28T02:11:53.869Z,13.11
2023-04-28T02:14:21.316Z,13.15
2023-04-28T02:16:48.045Z,13.13
2023-04-28T02:19:15.815Z,13.10
2023-04-28T02:21:43.179Z,13.08
2023-04-28T02:24:09.878Z,13.04
2023-04-28T02:26:36.652Z,13.02
2023-04-28T02:29:06.328Z,12.96
2023-04-28T02:31:33.352Z,12.96
2023-04-28T02:34:00.201Z,12.93
2023-04-28T02:36:27.979Z,12.95
2023-04-28T02:38:54.844Z,12.93
2023-04-28T02:41:21.648Z,12.96
2023-04-28T02:43:48.397Z,12.98
2023-04-28T02:46:15.245Z,13.01
2023-04-28T02:48:42.250Z,12.99
2023-04-28T02:51:10.525Z,13.01
2023-04-28T02:53:39.777Z,13.04
2023-04-28T02:56:07.228Z,13.06
2023-04-28T02:58:34.014Z,13.09
2023-04-28T03:01:01.382Z,13.09
2023-04-28T03:03:28.374Z,13.09
2023-04-28T03:05:57.142Z,13.13
2023-04-28T03:08:24.096Z,13.09
2023-04-28T03:10:50.967Z,13.04
2023-04-28T03:13:17.756Z,13.00
2023-04-28T03:15:44.672Z,12.98
2023-04-28T03:18:11.868Z,12.91
2023-04-28T03:20:38.887Z,12.84
2023-04-28T03:23:05.597Z,12.72
2023-04-28T03:25:32.597Z,12.66
2023-04-28T03:27:59.319Z,12.62
2023-04-28T03:30:26.100Z,12.60
2023-04-28T03:32:52.878Z,12.60
2023-04-28T03:35:19.848Z,12.60
2023-04-28T03:37:46.860Z,12.58
2023-04-28T03:40:13.750Z,12.56
2023-04-28T03:43:12.745Z,12.51
2023-04-28T03:45:46.040Z,12.52
2023-04-28T03:48:12.808Z,12.53
2023-04-28T03:50:41.161Z,12.48
2023-04-28T03:53:08.510Z,12.48
2023-04-28T03:55:35.376Z,12.49
2023-04-28T03:58:02.629Z,12.53
2023-04-28T04:00:29.438Z,12.56
2023-04-28T04:02:57.191Z,12.57
2023-04-28T04:05:24.308Z,12.54
2023-04-28T04:07:51.148Z,12.48
2023-04-28T04:10:17.969Z,12.46
2023-04-28T04:12:45.385Z,12.39
2023-04-28T04:15:12.371Z,12.41
2023-04-28T04:17:40.229Z,12.42
2023-04-28T04:20:07.834Z,12.38
2023-04-28T04:22:34.510Z,12.38
2023-04-28T04:25:01.568Z,12.45
2023-04-28T04:27:28.464Z,12.47
2023-04-28T04:29:55.585Z,12.47
2023-04-28T04:32:22.328Z,12.47
2023-04-28T04:34:49.784Z,12.46
2023-04-28T04:37:16.838Z,12.46
2023-04-28T04:39:50.727Z,12.47
2023-04-28T04:45:00.346Z,12.47
2023-04-28T04:47:29.675Z,12.49
2023-04-28T04:49:56.804Z,12.52
2023-04-28T04:52:23.914Z,12.41
2023-04-28T04:54:51.402Z,12.39
2023-04-28T04:57:18.483Z,12.41
2023-04-28T05:00:05.163Z,12.41
2023-04-28T05:02:32.140Z,12.41
2023-04-28T05:05:12.101Z,12.40
2023-04-28T05:07:49.282Z,12.41
2023-04-28T05:10:16.207Z,12.42
2023-04-28T05:12:46.209Z,12.45
2023-04-28T05:15:16.911Z,12.50
2023-04-28T05:17:53.353Z,12.53
2023-04-28T05:20:20.788Z,12.56
2023-04-28T05:22:47.525Z,12.58
2023-04-28T05:25:14.435Z,12.62
2023-04-28T05:27:41.246Z,12.59
2023-04-28T05:30:10.703Z,12.64
2023-04-28T05:32:38.177Z,12.65
2023-04-28T05:35:05.462Z,12.61
2023-04-28T05:37:32.386Z,12.59
2023-04-28T05:39:59.136Z,12.56
2023-04-28T05:42:25.831Z,12.56
2023-04-28T05:44:52.488Z,12.62
2023-04-28T05:47:19.159Z,12.66
2023-04-28T05:49:46.038Z,12.74
2023-04-28T05:52:12.731Z,12.79
2023-04-28T05:54:39.434Z,12.81
2023-04-28T05:57:06.229Z,12.88
2023-04-28T05:59:33.314Z,12.91
2023-04-28T06:02:00.724Z,12.94
2023-04-28T06:04:28.251Z,12.95
2023-04-28T06:06:55.348Z,12.97
2023-04-28T06:09:22.521Z,12.97
2023-04-28T06:11:49.216Z,12.92
2023-04-28T06:14:16.713Z,12.95
2023-04-28T06:16:43.692Z,12.93
2023-04-28T06:19:10.544Z,12.94
2023-04-28T06:21:37.504Z,12.96
2023-04-28T06:24:04.255Z,12.99
2023-04-28T06:26:31.194Z,12.97
2023-04-28T06:28:57.896Z,13.05
2023-04-28T06:31:24.653Z,13.10
2023-04-28T06:33:53.569Z,13.13
2023-04-28T06:36:22.704Z,13.17
2023-04-28T06:38:49.450Z,13.17
2023-04-28T06:41:16.666Z,13.20
2023-04-28T06:43:46.979Z,13.20
2023-04-28T06:46:29.293Z,13.21
2023-04-28T06:48:56.660Z,13.23
2023-04-28T06:51:23.636Z,13.24
2023-04-28T06:53:53.429Z,13.26
2023-04-28T06:56:20.608Z,13.24
2023-04-28T06:58:48.449Z,13.24
2023-04-28T07:01:15.284Z,13.24
2023-04-28T07:03:42.201Z,13.18
2023-04-28T07:06:09.071Z,13.25
2023-04-28T07:08:37.097Z,13.26
2023-04-28T07:11:04.933Z,13.30
2023-04-28T07:13:32.524Z,13.31
2023-04-28T07:15:59.435Z,13.34
2023-04-28T07:18:26.181Z,13.34
2023-04-28T07:20:52.980Z,13.35
2023-04-28T07:23:19.742Z,13.40
2023-04-28T07:25:46.838Z,13.41
2023-04-28T07:28:14.322Z,13.44
2023-04-28T07:30:41.247Z,13.50
2023-04-28T07:33:08.001Z,13.51
2023-04-28T07:35:35.153Z,13.47
2023-04-28T07:38:02.603Z,13.55
2023-04-28T07:40:29.348Z,13.58
2023-04-28T07:42:56.111Z,13.65
2023-04-28T07:45:22.965Z,13.73
2023-04-28T07:47:49.742Z,13.72
2023-04-28T07:50:17.434Z,13.68
2023-04-28T07:52:44.751Z,13.73
2023-04-28T07:55:11.587Z,13.87
2023-04-28T07:57:38.277Z,13.94
2023-04-28T08:00:05.719Z,13.94
2023-04-28T08:02:38.765Z,13.94
2023-04-28T08:05:07.668Z,13.94
2023-04-28T08:07:34.686Z,13.78
2023-04-28T08:10:01.597Z,13.69
2023-04-28T08:12:28.516Z,13.68
2023-04-28T08:14:55.564Z,13.68
2023-04-28T08:17:22.279Z,13.72
2023-04-28T08:19:49.058Z,13.74
2023-04-28T08:22:16.024Z,13.79
2023-04-28T08:24:42.783Z,13.81
2023-04-28T08:27:09.511Z,13.83
2023-04-28T08:29:36.255Z,13.92
2023-04-28T08:32:03.029Z,13.99
2023-04-28T08:34:29.783Z,14.02
2023-04-28T08:36:56.509Z,14.10
2023-04-28T08:39:23.883Z,14.14
2023-04-28T08:41:50.917Z,14.04
2023-04-28T08:44:18.710Z,14.07
2023-04-28T08:46:47.049Z,14.13
2023-04-28T08:49:18.404Z,14.20
2023-04-28T08:51:50.700Z,14.29
2023-04-28T08:54:26.021Z,14.31
2023-04-28T08:56:53.138Z,14.24
2023-04-28T08:59:20.063Z,14.38
2023-04-28T09:01:49.759Z,14.43
2023-04-28T09:04:18.055Z,14.42
2023-04-28T09:06:46.600Z,14.46
2023-04-28T09:09:20.332Z,14.60
2023-04-28T09:12:03.264Z,14.68
2023-04-28T09:14:33.103Z,14.75
2023-04-28T09:16:59.877Z,14.73
2023-04-28T09:19:37.687Z,14.71
2023-04-28T09:22:21.858Z,14.72
2023-04-28T09:24:53.347Z,14.77
2023-04-28T09:27:26.981Z,14.83
2023-04-28T09:29:54.659Z,14.78
2023-04-28T09:32:23.270Z,14.82
2023-04-28T09:34:56.940Z,14.82
2023-04-28T09:37:25.933Z,14.90
2023-04-28T09:39:54.483Z,14.91
2023-04-28T09:42:38.255Z,14.92
2023-04-28T09:45:06.956Z,15.07
2023-04-28T09:47:36.056Z,15.05
2023-04-28T09:50:09.517Z,15.09
2023-04-28T09:52:36.878Z,15.14
2023-04-28T09:55:05.846Z,15.09
2023-04-28T09:57:35.183Z,15.10
2023-04-28T10:00:06.029Z,15.18
2023-04-28T10:02:42.658Z,15.19
2023-04-28T10:05:11.112Z,15.31
2023-04-28T10:07:39.362Z,15.00
2023-04-28T10:10:07.801Z,15.30
2023-04-28T10:12:35.317Z,15.52
2023-04-28T10:15:02.242Z,15.72
2023-04-28T10:17:29.905Z,15.86
2023-04-28T10:19:57.828Z,15.95
2023-04-28T10:22:52.304Z,16.01
2023-04-28T10:25:30.680Z,16.02
2023-04-28T10:27:58.080Z,16.04
2023-04-28T10:30:28.825Z,16.06
2023-04-28T10:33:14.322Z,16.23
2023-04-28T10:35:45.292Z,16.30
2023-04-28T10:38:14.400Z,16.53
2023-04-28T10:40:42.723Z,16.79
2023-04-28T10:43:10.481Z,16.89
2023-04-28T10:45:50.354Z,17.14
2023-04-28T10:48:17.336Z,17.20
2023-04-28T10:51:13.291Z,17.21
2023-04-28T10:53:43.787Z,17.20
2023-04-28T10:56:21.640Z,17.16
2023-04-28T10:58:51.813Z,17.18
2023-04-28T11:01:25.001Z,17.20
2023-04-28T11:04:14.139Z,17.32
2023-04-28T11:06:42.767Z,17.26
2023-04-28T11:09:12.427Z,17.31
2023-04-28T11:11:40.252Z,17.05
2023-04-28T11:14:19.161Z,17.07
2023-04-28T11:16:55.646Z,17.21
2023-04-28T11:19:42.843Z,17.27
2023-04-28T11:22:24.099Z,17.25
2023-04-28T11:25:00.936Z,17.26
2023-04-28T11:27:29.167Z,17.23
2023-04-28T11:29:56.117Z,17.17
2023-04-28T11:32:30.808Z,17.09
2023-04-28T11:34:57.628Z,17.04
2023-04-28T11:37:24.360Z,17.04
2023-04-28T11:39:52.188Z,17.09
2023-04-28T11:42:19.419Z,17.19
2023-04-28T11:44:53.202Z,17.00
2023-04-28T11:47:35.405Z,16.98
2023-04-28T11:50:03.427Z,16.88
2023-04-28T11:52:30.268Z,16.90
2023-04-28T11:54:59.383Z,16.90
2023-04-28T11:57:26.931Z,16.87
2023-04-28T11:59:53.990Z,16.98
2023-04-28T12:02:30.975Z,16.98
2023-04-28T12:05:22.594Z,16.97
2023-04-28T12:07:49.478Z,16.86
2023-04-28T12:10:17.412Z,16.72
2023-04-28T12:12:51.627Z,16.68
2023-04-28T12:15:21.942Z,16.71
2023-04-28T12:17:51.154Z,16.63
2023-04-28T12:20:36.680Z,16.56
2023-04-28T12:23:03.466Z,16.45
2023-04-28T12:25:34.218Z,16.40
2023-04-28T12:28:04.300Z,16.40
2023-04-28T12:30:35.360Z,16.35
2023-04-28T12:33:02.175Z,16.33
2023-04-28T12:35:29.667Z,16.13
2023-04-28T12:37:58.783Z,16.18
2023-04-28T12:40:26.242Z,16.27
2023-04-28T12:42:53.336Z,16.19
2023-04-28T12:45:20.198Z,15.86
2023-04-28T12:47:48.416Z,15.78
2023-04-28T12:50:15.241Z,15.75
2023-04-28T12:52:41.982Z,15.56
2023-04-28T12:55:09.108Z,15.37
2023-04-28T12:57:39.015Z,15.45
2023-04-28T13:00:07.843Z,15.42
2023-04-28T13:02:35.320Z,15.47
2023-04-28T13:05:03.063Z,15.65
2023-04-28T13:07:30.695Z,15.87
2023-04-28T13:09:57.573Z,16.15
2023-04-28T13:12:24.350Z,16.41
2023-04-28T13:14:51.194Z,16.53
2023-04-28T13:17:18.012Z,16.55
2023-04-28T13:19:45.108Z,16.61
2023-04-28T13:22:12.664Z,16.57
2023-04-28T13:24:39.512Z,16.46
2023-04-28T13:27:10.265Z,16.37
2023-04-28T13:29:37.518Z,16.38
2023-04-28T13:32:06.015Z,16.50
2023-04-28T13:34:33.335Z,16.50
2023-04-28T13:37:00.131Z,16.50
2023-04-28T13:39:26.848Z,16.71
2023-04-28T13:41:53.577Z,16.90
2023-04-28T13:44:20.352Z,16.96
2023-04-28T13:46:47.401Z,17.02
2023-04-28T13:49:14.165Z,16.92
2023-04-28T13:51:41.356Z,16.85
2023-04-28T13:54:09.048Z,16.76
2023-04-28T13:56:36.762Z,16.79
2023-04-28T13:59:04.094Z,16.77
2023-04-28T14:01:31.032Z,16.79
2023-04-28T14:03:58.201Z,16.79
2023-04-28T14:06:25.094Z,16.65
2023-04-28T14:08:52.075Z,16.59
2023-04-28T14:11:18.756Z,16.56
2023-04-28T14:13:45.665Z,16.60
2023-04-28T14:16:12.466Z,16.70
2023-04-28T14:18:39.751Z,16.67
2023-04-28T14:21:08.601Z,16.72
2023-04-28T14:23:36.088Z,16.68
2023-04-28T14:26:03.276Z,16.64
2023-04-28T14:28:30.137Z,16.64
2023-04-28T14:30:57.318Z,16.68
2023-04-28T14:33:24.857Z,16.65
2023-04-28T14:35:52.161Z,16.63
2023-04-28T14:38:18.985Z,16.69
2023-04-28T14:40:45.983Z,16.72
2023-04-28T14:43:14.160Z,16.72
2023-04-28T14:45:41.045Z,16.60
2023-04-28T14:48:08.100Z,16.49
2023-04-28T14:50:35.200Z,16.36
2023-04-28T14:53:05.713Z,16.24
2023-04-28T14:55:33.519Z,16.22
2023-04-28T14:58:00.286Z,16.17
2023-04-28T15:00:27.017Z,16.23
2023-04-28T15:02:54.368Z,16.27
2023-04-28T15:05:21.300Z,16.26
2023-04-28T15:07:48.050Z,16.21
2023-04-28T15:10:15.413Z,16.24
2023-04-28T15:12:42.769Z,16.30
2023-04-28T15:15:09.926Z,16.31
2023-04-28T15:17:36.658Z,16.34
2023-04-28T15:20:04.841Z,16.38
2023-04-28T15:22:31.702Z,16.33
2023-04-28T15:24:58.456Z,16.39
2023-04-28T15:27:25.189Z,16.46
2023-04-28T15:29:51.874Z,16.45
2023-04-28T15:32:19.225Z,16.51
2023-04-28T15:34:46.319Z,16.61
2023-04-28T15:37:38.114Z,16.65
2023-04-28T15:40:09.392Z,16.54
2023-04-28T15:42:36.350Z,16.73
2023-04-28T15:45:03.635Z,16.74
2023-04-28T15:47:31.186Z,16.72
2023-04-28T15:49:59.332Z,16.70
2023-04-28T15:52:27.273Z,16.73
2023-04-28T15:54:56.025Z,16.81
2023-04-28T15:57:23.024Z,16.86
2023-04-28T15:59:51.797Z,16.92
2023-04-28T16:02:18.950Z,16.90
2023-04-28T16:04:47.108Z,16.92
2023-04-28T16:07:14.197Z,16.89
2023-04-28T16:09:40.980Z,16.84
2023-04-28T16:12:07.679Z,16.88
2023-04-28T16:14:35.106Z,16.84
2023-04-28T16:17:01.889Z,16.77
2023-04-28T16:19:28.676Z,16.76
2023-04-28T16:21:55.356Z,16.72
2023-04-28T16:24:22.739Z,16.67
2023-04-28T16:26:51.116Z,16.64
2023-04-28T16:29:17.990Z,16.55
2023-04-28T16:31:45.229Z,16.52
2023-04-28T16:34:12.500Z,16.56
2023-04-28T16:36:40.310Z,16.58
2023-04-28T16:39:07.213Z,16.64
2023-04-28T16:41:33.919Z,16.68
2023-04-28T16:44:00.601Z,16.70
2023-04-28T16:46:27.415Z,16.76
2023-04-28T16:48:54.168Z,16.72
2023-04-28T16:51:22.213Z,16.65
2023-04-28T16:53:48.946Z,16.62
2023-04-28T16:56:15.674Z,16.59
2023-04-28T16:58:42.588Z,16.48
2023-04-28T17:01:09.583Z,16.49
2023-04-28T17:03:41.757Z,16.51
2023-04-28T17:06:09.207Z,16.45
2023-04-28T17:08:36.051Z,16.45
2023-04-28T17:11:04.426Z,16.55
2023-04-28T17:13:34.227Z,16.59
2023-04-28T17:16:01.421Z,16.66
2023-04-28T17:18:28.453Z,16.63
2023-04-28T17:20:56.129Z,16.67
2023-04-28T17:23:22.910Z,16.67
2023-04-28T17:25:49.640Z,16.76
2023-04-28T17:28:16.424Z,16.80
2023-04-28T17:30:47.122Z,16.84
2023-04-28T17:33:14.457Z,16.81
2023-04-28T17:35:41.158Z,16.78
2023-04-28T17:38:07.851Z,16.76
2023-04-28T17:40:34.769Z,16.70
2023-04-28T17:43:01.804Z,16.68
2023-04-28T17:45:28.664Z,16.64
2023-04-28T17:47:57.889Z,16.60
2023-04-28T17:50:25.971Z,16.58
2023-04-28T17:52:52.888Z,16.55
2023-04-28T17:55:19.637Z,16.51
2023-04-28T17:57:46.436Z,16.44
2023-04-28T18:00:13.801Z,16.36
2023-04-28T18:02:40.987Z,16.33
2023-04-28T18:05:08.201Z,16.28
2023-04-28T18:07:34.989Z,16.23
2023-04-28T18:10:01.827Z,16.18
2023-04-28T18:12:28.584Z,16.14
2023-04-28T18:14:55.492Z,16.11
2023-04-28T18:17:23.395Z,16.02
2023-04-28T18:19:52.404Z,15.92
2023-04-28T18:22:19.183Z,15.88
2023-04-28T18:24:46.210Z,15.81
2023-04-28T18:27:12.968Z,15.76
2023-04-28T18:29:39.690Z,15.68
2023-04-28T18:32:06.946Z,15.64
2023-04-28T18:34:33.791Z,15.57
2023-04-28T18:37:00.616Z,15.52
2023-04-28T18:39:27.668Z,15.46
2023-04-28T18:41:54.385Z,15.43
2023-04-28T18:44:21.716Z,15.38
2023-04-28T18:46:48.452Z,15.34
2023-04-28T18:49:15.329Z,15.35
2023-04-28T18:51:42.267Z,15.30
2023-04-28T18:54:09.045Z,15.25
2023-04-28T18:56:36.569Z,15.24
2023-04-28T18:59:04.575Z,15.21
2023-04-28T19:01:31.712Z,15.17
2023-04-28T19:03:58.658Z,15.12
2023-04-28T19:06:25.796Z,15.10
2023-04-28T19:08:52.486Z,15.07
2023-04-28T19:11:19.178Z,15.08
2023-04-28T19:13:45.907Z,15.09
2023-04-28T19:16:13.345Z,15.10
2023-04-28T19:18:42.132Z,15.11
2023-04-28T19:21:11.829Z,15.12
2023-04-28T19:23:41.948Z,15.07
2023-04-28T19:26:09.449Z,14.97
2023-04-28T19:28:36.213Z,15.01
2023-04-28T19:31:03.128Z,15.01
2023-04-28T19:33:29.926Z,15.00
2023-04-28T19:35:56.892Z,15.01
2023-04-28T19:38:24.202Z,15.01
2023-04-28T19:40:52.278Z,14.98
2023-04-28T19:43:19.301Z,14.93
2023-04-28T19:45:46.844Z,14.90
2023-04-28T19:48:14.682Z,14.86
2023-04-28T19:50:42.373Z,14.80
2023-04-28T19:53:09.624Z,14.79
2023-04-28T19:55:37.089Z,14.78
2023-04-28T19:58:04.274Z,14.76
2023-04-28T20:00:32.409Z,14.73
2023-04-28T20:03:00.326Z,14.68
2023-04-28T20:05:27.570Z,14.66
2023-04-28T20:07:56.239Z,14.67
2023-04-28T20:10:23.930Z,14.68
2023-04-28T20:12:50.779Z,14.69
2023-04-28T20:15:18.659Z,14.67
2023-04-28T20:17:46.115Z,14.64
2023-04-28T20:20:13.140Z,14.63
2023-04-28T20:22:41.211Z,14.64
2023-04-28T20:25:10.604Z,14.63
2023-04-28T20:27:37.588Z,14.63
2023-04-28T20:30:05.112Z,14.56
2023-04-28T20:32:31.959Z,14.52
2023-04-28T20:34:58.768Z,14.48
2023-04-28T20:37:26.621Z,14.42
2023-04-28T20:39:53.619Z,14.43
2023-04-28T20:42:20.337Z,14.41
2023-04-28T20:44:47.123Z,14.37
2023-04-28T20:47:14.303Z,14.33
2023-04-28T20:49:41.194Z,14.33
2023-04-28T20:52:08.423Z,14.27
2023-04-28T20:54:36.310Z,14.27
2023-04-28T20:57:06.871Z,14.28
2023-04-28T20:59:33.685Z,14.31
2023-04-28T21:02:00.637Z,14.31
2023-04-28T21:04:28.516Z,14.34
2023-04-28T21:06:55.790Z,14.37
2023-04-28T21:09:25.360Z,14.41
2023-04-28T21:11:52.393Z,14.44
2023-04-28T21:14:19.215Z,14.46
2023-04-28T21:16:46.041Z,14.47
2023-04-28T21:19:12.965Z,14.45
2023-04-28T21:21:39.920Z,14.52
2023-04-28T21:24:08.152Z,14.52
2023-04-28T21:26:36.015Z,14.53
2023-04-28T21:29:03.025Z,14.55
2023-04-28T21:31:30.783Z,14.56
2023-04-28T21:33:57.809Z,14.56
2023-04-28T21:36:24.693Z,14.54
2023-04-28T21:38:51.626Z,14.57
2023-04-28T21:41:18.348Z,14.56
2023-04-28T21:43:45.004Z,14.54
2023-04-28T21:46:13.288Z,14.50
2023-04-28T21:48:40.101Z,14.50
2023-04-28T21:51:06.794Z,14.49
2023-04-28T21:53:33.620Z,14.46
2023-04-28T21:56:00.368Z,14.39
2023-04-28T21:58:27.281Z,14.37
2023-04-28T22:00:55.259Z,14.33
2023-04-28T22:03:22.297Z,14.25
2023-04-28T22:05:49.235Z,14.19
2023-04-28T22:08:17.275Z,14.19
2023-04-28T22:10:45.757Z,14.17
2023-04-28T22:13:16.080Z,14.15
2023-04-28T22:15:43.237Z,14.17
2023-04-28T22:18:10.105Z,14.18
2023-04-28T22:20:36.951Z,14.16
2023-04-28T22:23:03.706Z,14.15
2023-04-28T22:25:30.393Z,14.12
2023-04-28T22:27:57.323Z,14.03
2023-04-28T22:30:25.965Z,13.98
2023-04-28T22:32:53.321Z,13.99
2023-04-28T22:35:20.126Z,13.96
2023-04-28T22:37:47.055Z,13.89
2023-04-28T22:40:13.926Z,13.86
2023-04-28T22:42:41.912Z,13.87
2023-04-28T22:45:10.522Z,13.87
2023-04-28T22:47:38.752Z,13.84
2023-04-28T22:50:06.684Z,13.83
2023-04-28T22:52:34.294Z,13.81
2023-04-28T22:55:01.363Z,13.80
2023-04-28T22:57:28.273Z,13.80
2023-04-28T22:59:55.046Z,13.81
2023-04-28T23:02:23.234Z,13.79
2023-04-28T23:04:50.541Z,13.79
2023-04-28T23:07:17.525Z,13.79
2023-04-28T23:09:44.237Z,13.76
2023-04-28T23:12:10.979Z,13.73
2023-04-28T23:14:38.314Z,13.75
2023-04-28T23:17:05.247Z,13.76
2023-04-28T23:19:31.970Z,13.76
2023-04-28T23:21:58.679Z,13.75
2023-04-28T23:24:26.775Z,13.73
2023-04-28T23:26:53.509Z,13.71
2023-04-28T23:29:20.300Z,13.71
2023-04-28T23:31:52.595Z,13.71
2023-04-28T23:34:19.539Z,13.69
2023-04-28T23:36:46.344Z,13.66
2023-04-28T23:39:13.191Z,13.64
2023-04-28T23:41:39.924Z,13.66
2023-04-28T23:44:06.640Z,13.63
2023-04-28T23:46:33.694Z,13.63
2023-04-28T23:49:00.376Z,13.61
2023-04-28T23:51:27.080Z,13.60
2023-04-28T23:53:53.854Z,13.60
2023-04-28T23:56:20.614Z,13.56
2023-04-28T23:58:47.388Z,13.58
